Dayton, Illinois
Current Conditions -  °F | °C
As of 10:15 AM on Sunday 25 Jan 2015 (Local Time) from KVYS Reporting Station
Light Snow Light Snow  
Wind Chill: 20°   Ceiling: 700
Heat Index: 32°   Visibility: 2.5mi
Dew Point: 32°   Wind: 22mph
Humidity: 99%   Direction: 50°NE
Pressure: 29.74"   Gusts: NA
Location:  41.4349°N, 88.8687°W
Report Text: KVYS 251615Z AUTO 05019KT 2 1/2SM -SN OVC007 00/00 A2974 RMK AO2 P0001 T00020000
Loading
Personal Weather Stations






























Interactive Weather Map New forecast layout! Learn more

10-Day Weather Forecast

Advertisements
Track Severe Weather on mobile